»·PEaware :: ASA8691 KBZN-KPDX

ASA8691 :: KBZN-KPDX

FLIGHT INFORMATION

Flight Status: Arrived
Operator:
Alaska Airlines
More flights by this operator :: More flights under this callsign
Pilot: Lauren G. (5641)
Aircraft: AIRBUS A321
(A321)
More flights by this aircraft type
Origin: KBZN Gallatin
United States
Destination: KPDX Portland Intl
United States
More flights between these airports :: More routes between these airports
Route: +TEERX4 HIA DCT DOXIE DCT JKNOX HHOOD4
File this flight plan on PilotEdge
Remarks:
Altitude:
(Current/Filed)
36,000ft
Speed:
(Current/Filed)
453kts
Departed: 03-Jul-20 11:49 AM
Arrived: 03-Jul-20 01:18 PM
Distance/Time
Traveled:
479nm/1:28
Distance/Time
To Go:
Arrived

Flight Plot

Page will automatically refresh every two minutes.


Map Options




Map Legend


Flown Route
Filed Route
Departure Airport
Arrival Airport
Navaid (VOR, NDB)
Fix

Horizontal Profiles

Position Reports

Time Latitude Longitude Heading Altitude Ground
Speed
03-Jul-20 11:27 45.778790 -111.160478 231 4457ft 0kts
03-Jul-20 11:28 45.778790 -111.160478 231 4457ft 0kts
03-Jul-20 11:29 45.778790 -111.160478 231 4457ft 0kts
03-Jul-20 11:30 45.778790 -111.160478 231 4457ft 0kts
03-Jul-20 11:31 45.778790 -111.160478 231 4457ft 0kts
03-Jul-20 11:32 45.778790 -111.160478 231 4457ft 0kts
03-Jul-20 11:33 45.778790 -111.160478 231 4457ft 0kts
03-Jul-20 11:34 45.778790 -111.160478 231 4457ft 0kts
03-Jul-20 11:35 45.778790 -111.160478 231 4457ft 0kts
03-Jul-20 11:36 45.778790 -111.160478 231 4457ft 0kts
03-Jul-20 11:37 45.778790 -111.160478 231 4457ft 0kts
03-Jul-20 11:38 45.778790 -111.160478 231 4457ft 0kts
03-Jul-20 11:39 45.778790 -111.160478 231 4457ft 0kts
03-Jul-20 11:40 45.778790 -111.160478 231 4457ft 0kts
03-Jul-20 11:41 45.778790 -111.160478 231 4457ft 0kts
03-Jul-20 11:42 45.779008 -111.159923 272 4457ft 2kts
03-Jul-20 11:43 45.778872 -111.159526 315 4457ft 0kts
03-Jul-20 11:44 45.778872 -111.159526 315 4457ft 0kts
03-Jul-20 11:45 45.780146 -111.160558 6 4454ft 15kts
03-Jul-20 11:46 45.785739 -111.167375 315 4440ft 32kts
03-Jul-20 11:47 45.787299 -111.167475 50 4436ft 12kts
03-Jul-20 11:48 45.781857 -111.157843 135 4450ft 121kts
03-Jul-20 11:49 45.747088 -111.122897 197 6114ft 172kts
03-Jul-20 11:50 45.713798 -111.181996 231 7800ft 224kts
03-Jul-20 11:51 45.705117 -111.278157 279 9683ft 289kts
03-Jul-20 11:52 45.719642 -111.401645 276 11704ft 344kts
03-Jul-20 11:53 45.735509 -111.543045 276 13076ft 405kts
03-Jul-20 11:54 45.759060 -111.702578 283 16098ft 419kts
03-Jul-20 11:55 45.795134 -111.865915 283 18845ft 431kts
03-Jul-20 11:56 45.832021 -112.033935 283 21122ft 446kts
03-Jul-20 11:57 45.860879 -112.214082 270 23179ft 451kts
03-Jul-20 11:58 45.862492 -112.403348 266 25456ft 451kts
03-Jul-20 11:59 45.862900 -112.579752 266 28150ft 434kts
03-Jul-20 12:00 45.863096 -112.750285 264 30435ft 421kts
03-Jul-20 12:01 45.863045 -112.917029 264 32338ft 413kts
03-Jul-20 12:02 45.862773 -113.079787 263 34106ft 403kts
03-Jul-20 12:03 45.862217 -113.239371 263 35463ft 400kts
03-Jul-20 12:04 45.861486 -113.398815 263 36150ft 399kts
03-Jul-20 12:05 45.860537 -113.557703 263 36155ft 399kts
03-Jul-20 12:06 45.859397 -113.716383 263 36155ft 398kts
03-Jul-20 12:07 45.858039 -113.875353 263 36154ft 398kts
03-Jul-20 12:08 45.856439 -114.034454 263 36154ft 398kts
03-Jul-20 12:09 45.854622 -114.192893 263 36138ft 398kts
03-Jul-20 12:10 45.852584 -114.351521 263 36114ft 398kts
03-Jul-20 12:11 45.850308 -114.510658 263 36109ft 398kts
03-Jul-20 12:12 45.847842 -114.669513 262 36112ft 399kts
03-Jul-20 12:13 45.845173 -114.829380 262 36108ft 400kts
03-Jul-20 12:14 45.842267 -114.989513 263 36108ft 402kts
03-Jul-20 12:15 45.839126 -115.149783 263 36074ft 404kts
03-Jul-20 12:16 45.833295 -115.310713 262 36027ft 405kts
03-Jul-20 12:17 45.826638 -115.472160 262 36016ft 407kts
03-Jul-20 12:18 45.819861 -115.634367 262 36015ft 409kts
03-Jul-20 12:19 45.812861 -115.797843 262 36015ft 410kts
03-Jul-20 12:20 45.805588 -115.961934 262 36015ft 410kts
03-Jul-20 12:21 45.798061 -116.125928 262 36040ft 411kts
03-Jul-20 12:22 45.790327 -116.289379 262 36071ft 410kts
03-Jul-20 12:23 45.782393 -116.451816 262 36078ft 410kts
03-Jul-20 12:24 45.774200 -116.614970 261 36079ft 409kts
03-Jul-20 12:25 45.765819 -116.777721 261 36079ft 409kts
03-Jul-20 12:26 45.757151 -116.941132 261 36078ft 409kts
03-Jul-20 12:27 45.748245 -117.104414 261 36075ft 410kts
03-Jul-20 12:28 45.739113 -117.267515 261 36072ft 411kts
03-Jul-20 12:29 45.729727 -117.430958 261 36072ft 413kts
03-Jul-20 12:30 45.720048 -117.595234 261 36070ft 414kts
03-Jul-20 12:31 45.710144 -117.759893 261 36072ft 415kts
03-Jul-20 12:32 45.699941 -117.925405 261 36071ft 416kts
03-Jul-20 12:33 45.689498 -118.090631 261 36075ft 416kts
03-Jul-20 12:34 45.678773 -118.256310 261 36078ft 416kts
03-Jul-20 12:35 45.667816 -118.421933 261 36079ft 415kts
03-Jul-20 12:36 45.656712 -118.585985 261 36079ft 415kts
03-Jul-20 12:37 45.645388 -118.750220 260 36079ft 415kts
03-Jul-20 12:38 45.633758 -118.915346 260 36076ft 415kts
03-Jul-20 12:39 45.621859 -119.080514 260 36058ft 415kts
03-Jul-20 12:40 45.609689 -119.245888 260 36045ft 415kts
03-Jul-20 12:41 45.597376 -119.410147 260 36043ft 415kts
03-Jul-20 12:42 45.584825 -119.574283 260 36043ft 417kts
03-Jul-20 12:43 45.572035 -119.738756 260 36044ft 416kts
03-Jul-20 12:44 45.559001 -119.903482 260 35935ft 408kts
03-Jul-20 12:45 45.546665 -120.057059 259 34897ft 370kts
03-Jul-20 12:46 45.535195 -120.196968 259 33878ft 337kts
03-Jul-20 12:47 45.524219 -120.328276 259 32863ft 329kts
03-Jul-20 12:48 45.517996 -120.459271 266 30908ft 336kts
03-Jul-20 12:50 45.519828 -120.589371 266 29494ft 319kts
03-Jul-20 12:51 45.521541 -120.712953 265 28050ft 307kts
03-Jul-20 12:52 45.523067 -120.833161 266 26491ft 298kts
03-Jul-20 12:53 45.524431 -120.950560 265 24719ft 299kts
03-Jul-20 12:54 45.525657 -121.077851 266 21370ft 342kts
03-Jul-20 12:55 45.527023 -121.211889 267 19464ft 332kts
03-Jul-20 12:56 45.528121 -121.341019 267 17576ft 323kts
03-Jul-20 12:57 45.528811 -121.467415 267 15689ft 316kts
03-Jul-20 12:58 45.529127 -121.589567 267 14040ft 301kts
03-Jul-20 12:59 45.529301 -121.703009 266 12912ft 277kts
03-Jul-20 13:00 45.532852 -121.812758 269 11791ft 272kts
03-Jul-20 13:01 45.536670 -121.920490 270 10144ft 269kts
03-Jul-20 13:02 45.552194 -122.025990 285 8983ft 272kts
03-Jul-20 13:03 45.574306 -122.131009 285 8989ft 272kts
03-Jul-20 13:04 45.595890 -122.234879 285 8995ft 272kts
03-Jul-20 13:04 45.613485 -122.320020 285 8556ft 259kts
03-Jul-20 13:06 45.636552 -122.432262 286 7250ft 245kts
03-Jul-20 13:07 45.663957 -122.521955 297 6371ft 244kts
03-Jul-20 13:07 45.689826 -122.593429 297 5433ft 234kts
03-Jul-20 13:09 45.724209 -122.688927 296 4047ft 228kts
03-Jul-20 13:09 45.748431 -122.756516 295 3010ft 226kts
03-Jul-20 13:10 45.768320 -122.835973 253 2989ft 214kts
03-Jul-20 13:11 45.720371 -122.877870 163 3001ft 219kts
03-Jul-20 13:12 45.680190 -122.814492 118 2991ft 212kts
03-Jul-20 13:13 45.653827 -122.746246 119 2410ft 189kts
03-Jul-20 13:14 45.629873 -122.685215 120 1472ft 166kts
03-Jul-20 13:15 45.609365 -122.632802 121 642ft 141kts
03-Jul-20 13:16 45.590808 -122.585318 118 38ft 119kts
03-Jul-20 13:17 45.586601 -122.577855 300 38ft 18kts
03-Jul-20 13:18 45.589691 -122.588080 295 38ft 24kts
03-Jul-20 13:19 45.590262 -122.591552 209 38ft 0kts

Navigation Log

Ident Type
Flight plan parsing failed, navigation log unavailable